createdAt,value
2023-04-21T00:00:10.184Z,13.72
2023-04-21T00:02:41.726Z,13.74
2023-04-21T00:05:12.471Z,13.81
2023-04-21T00:07:41.644Z,13.85
2023-04-21T00:10:10.819Z,13.87
2023-04-21T00:12:39.463Z,13.92
2023-04-21T00:15:10.366Z,13.99
2023-04-21T00:17:39.150Z,14.03
2023-04-21T00:20:09.848Z,14.07
2023-04-21T00:22:37.925Z,14.11
2023-04-21T00:25:07.039Z,14.10
2023-04-21T00:27:35.329Z,14.14
2023-04-21T00:30:03.427Z,14.15
2023-04-21T00:32:32.861Z,14.14
2023-04-21T00:35:01.635Z,14.13
2023-04-21T00:37:30.010Z,14.11
2023-04-21T00:39:58.604Z,14.06
2023-04-21T00:42:27.003Z,14.03
2023-04-21T00:44:55.967Z,14.00
2023-04-21T00:47:25.496Z,14.00
2023-04-21T00:49:55.159Z,13.95
2023-04-21T00:52:23.429Z,13.96
2023-04-21T00:54:51.832Z,13.93
2023-04-21T00:57:20.318Z,13.92
2023-04-21T00:59:49.824Z,13.92
2023-04-21T01:02:19.972Z,13.90
2023-04-21T01:04:49.387Z,13.88
2023-04-21T01:07:19.001Z,13.89
2023-04-21T01:09:46.977Z,13.89
2023-04-21T01:12:15.346Z,13.86
2023-04-21T01:14:43.343Z,13.82
2023-04-21T01:17:11.936Z,13.82
2023-04-21T01:19:43.343Z,13.82
2023-04-21T01:22:15.309Z,13.81
2023-04-21T01:24:44.928Z,13.85
2023-04-21T01:27:15.063Z,13.81
2023-04-21T01:29:44.644Z,13.81
2023-04-21T01:32:16.624Z,13.81
2023-04-21T01:34:46.285Z,13.85
2023-04-21T01:37:18.619Z,13.86
2023-04-21T01:39:48.548Z,13.85
2023-04-21T01:42:16.646Z,13.84
2023-04-21T01:44:47.000Z,13.85
2023-04-21T01:47:18.532Z,13.86
2023-04-21T01:49:47.020Z,13.88
2023-04-21T01:52:16.932Z,13.86
2023-04-21T01:54:45.004Z,13.85
2023-04-21T01:57:13.262Z,13.84
2023-04-21T01:59:41.567Z,13.86
2023-04-21T02:02:10.062Z,13.85
2023-04-21T02:04:38.563Z,13.81
2023-04-21T02:07:07.308Z,13.87
2023-04-21T02:09:36.886Z,13.85
2023-04-21T02:12:05.704Z,13.84
2023-04-21T02:14:33.706Z,13.81
2023-04-21T02:17:03.615Z,13.83
2023-04-21T02:19:32.357Z,13.82
2023-04-21T02:22:00.517Z,13.83
2023-04-21T02:24:28.703Z,13.82
2023-04-21T02:26:58.642Z,13.80
2023-04-21T02:29:29.244Z,13.75
2023-04-21T02:32:05.173Z,13.74
2023-04-21T02:34:33.457Z,13.75
2023-04-21T02:37:02.416Z,13.71
2023-04-21T02:39:30.735Z,13.72
2023-04-21T02:42:00.541Z,13.71
2023-04-21T02:44:28.803Z,13.65
2023-04-21T02:46:56.752Z,13.65
2023-04-21T02:49:24.820Z,13.65
2023-04-21T02:51:52.976Z,13.64
2023-04-21T02:54:20.965Z,13.64
2023-04-21T02:56:49.220Z,13.63
2023-04-21T02:59:19.118Z,13.62
2023-04-21T03:01:49.181Z,13.60
2023-04-21T03:04:17.496Z,13.59
2023-04-21T03:06:45.640Z,13.56
2023-04-21T03:09:13.587Z,13.63
2023-04-21T03:11:41.830Z,13.62
2023-04-21T03:14:09.737Z,13.61
2023-04-21T03:16:39.052Z,13.58
2023-04-21T03:19:07.712Z,13.55
2023-04-21T03:21:37.976Z,13.55
2023-04-21T03:24:07.057Z,13.51
2023-04-21T03:26:35.507Z,13.52
2023-04-21T03:29:03.767Z,13.52
2023-04-21T03:31:31.800Z,13.50
2023-04-21T03:34:01.436Z,13.49
2023-04-21T03:36:29.522Z,13.47
2023-04-21T03:39:05.910Z,13.43
2023-04-21T03:41:41.336Z,13.44
2023-04-21T03:44:10.752Z,13.45
2023-04-21T03:46:40.192Z,13.43
2023-04-21T03:49:09.703Z,13.44
2023-04-21T03:51:37.652Z,13.41
2023-04-21T03:54:05.657Z,13.39
2023-04-21T03:56:33.851Z,13.39
2023-04-21T03:59:01.810Z,13.38
2023-04-21T04:01:29.753Z,13.37
2023-04-21T04:03:58.147Z,13.37
2023-04-21T04:06:28.446Z,13.37
2023-04-21T04:08:56.406Z,13.34
2023-04-21T04:11:24.601Z,13.34
2023-04-21T04:13:52.666Z,13.34
2023-04-21T04:16:20.774Z,13.32
2023-04-21T04:18:50.981Z,13.33
2023-04-21T04:21:18.938Z,13.34
2023-04-21T04:23:48.278Z,13.36
2023-04-21T04:26:16.635Z,13.39
2023-04-21T04:28:44.589Z,13.36
2023-04-21T04:31:13.703Z,13.42
2023-04-21T04:33:43.095Z,13.45
2023-04-21T04:36:11.883Z,13.46
2023-04-21T04:38:40.314Z,13.48
2023-04-21T04:41:09.885Z,13.49
2023-04-21T04:43:39.119Z,13.47
2023-04-21T04:46:09.089Z,13.55
2023-04-21T04:48:37.506Z,13.57
2023-04-21T04:51:05.749Z,13.52
2023-04-21T04:53:33.683Z,13.60
2023-04-21T04:56:02.152Z,13.62
2023-04-21T04:58:31.464Z,13.67
2023-04-21T05:00:59.508Z,13.71
2023-04-21T05:03:27.932Z,13.74
2023-04-21T05:05:57.585Z,13.79
2023-04-21T05:08:25.732Z,13.85
2023-04-21T05:10:53.971Z,13.87
2023-04-21T05:13:21.956Z,13.95
2023-04-21T05:15:51.200Z,13.97
2023-04-21T05:18:19.428Z,13.99
2023-04-21T05:20:47.322Z,14.03
2023-04-21T05:23:15.302Z,14.06
2023-04-21T05:25:43.405Z,14.14
2023-04-21T05:28:11.545Z,14.19
2023-04-21T05:30:39.436Z,14.21
2023-04-21T05:33:09.407Z,14.32
2023-04-21T05:35:38.136Z,14.35
2023-04-21T05:38:07.115Z,14.45
2023-04-21T05:40:35.316Z,14.52
2023-04-21T05:43:03.367Z,14.58
2023-04-21T05:45:31.354Z,14.63
2023-04-21T05:47:59.537Z,14.70
2023-04-21T05:50:33.982Z,14.76
2023-04-21T05:53:03.155Z,14.86
2023-04-21T05:55:31.257Z,14.95
2023-04-21T05:57:59.230Z,15.03
2023-04-21T06:00:29.208Z,15.18
2023-04-21T06:02:58.099Z,15.29
2023-04-21T06:05:26.265Z,15.38
2023-04-21T06:07:55.650Z,15.42
2023-04-21T06:10:23.982Z,15.53
2023-04-21T06:12:51.902Z,15.58
2023-04-21T06:15:19.979Z,15.65
2023-04-21T06:17:48.161Z,15.71
2023-04-21T06:20:17.801Z,15.80
2023-04-21T06:22:45.763Z,15.85
2023-04-21T06:25:15.416Z,15.93
2023-04-21T06:27:45.555Z,16.06
2023-04-21T06:30:14.798Z,16.24
2023-04-21T06:32:42.956Z,16.33
2023-04-21T06:35:11.002Z,16.50
2023-04-21T06:37:39.289Z,16.64
2023-04-21T06:40:08.202Z,16.66
2023-04-21T06:42:37.580Z,16.79
2023-04-21T06:45:07.131Z,16.99
2023-04-21T06:47:35.136Z,17.12
2023-04-21T06:50:03.114Z,17.18
2023-04-21T06:52:31.476Z,17.34
2023-04-21T06:54:59.462Z,17.47
2023-04-21T06:57:27.472Z,17.56
2023-04-21T06:59:57.014Z,17.76
2023-04-21T07:02:25.069Z,17.86
2023-04-21T07:04:53.163Z,18.10
2023-04-21T07:07:21.425Z,18.21
2023-04-21T07:09:49.415Z,18.38
2023-04-21T07:12:17.514Z,18.43
2023-04-21T07:14:45.780Z,18.47
2023-04-21T07:17:15.292Z,18.71
2023-04-21T07:19:43.350Z,18.91
2023-04-21T07:22:11.633Z,19.10
2023-04-21T07:24:39.646Z,19.28
2023-04-21T07:27:07.642Z,19.51
2023-04-21T07:29:37.277Z,19.66
2023-04-21T07:32:05.539Z,19.80
2023-04-21T07:34:34.761Z,19.80
2023-04-21T07:37:03.055Z,19.94
2023-04-21T07:39:31.036Z,20.07
2023-04-21T07:42:01.541Z,20.20
2023-04-21T07:44:30.082Z,20.36
2023-04-21T07:46:58.361Z,20.58
2023-04-21T07:49:26.426Z,20.72
2023-04-21T07:51:56.036Z,20.80
2023-04-21T07:54:24.128Z,20.98
2023-04-21T07:56:52.067Z,21.04
2023-04-21T07:59:20.515Z,21.06
2023-04-21T08:01:48.643Z,21.13
2023-04-21T08:04:17.058Z,21.18
2023-04-21T08:06:45.348Z,21.26
2023-04-21T08:09:14.960Z,21.48
2023-04-21T08:11:43.303Z,21.67
2023-04-21T08:14:11.925Z,21.85
2023-04-21T08:16:40.574Z,22.01
2023-04-21T08:19:08.992Z,22.09
2023-04-21T08:21:37.566Z,22.28
2023-04-21T08:24:06.313Z,22.30
2023-04-21T08:26:36.151Z,22.49
2023-04-21T08:29:07.294Z,22.31
2023-04-21T08:31:36.372Z,22.46
2023-04-21T08:34:04.618Z,22.54
2023-04-21T08:36:32.710Z,22.60
2023-04-21T08:39:01.600Z,22.75
2023-04-21T08:41:29.651Z,22.89
2023-04-21T08:43:59.131Z,23.05
2023-04-21T08:46:29.131Z,23.19
2023-04-21T08:48:59.634Z,23.27
2023-04-21T08:51:30.192Z,23.42
2023-04-21T08:53:58.590Z,23.45
2023-04-21T08:56:27.246Z,23.40
2023-04-21T08:58:55.606Z,23.43
2023-04-21T09:01:25.212Z,23.47
2023-04-21T09:03:53.560Z,23.38
2023-04-21T09:06:43.599Z,23.67
2023-04-21T09:09:11.787Z,23.77
2023-04-21T09:11:42.939Z,23.78
2023-04-21T09:14:12.526Z,23.74
2023-04-21T09:16:44.571Z,23.80
2023-04-21T09:19:16.261Z,23.87
2023-04-21T09:21:45.528Z,23.86
2023-04-21T09:24:14.113Z,24.11
2023-04-21T09:26:43.836Z,24.31
2023-04-21T09:29:12.659Z,24.39
2023-04-21T09:31:42.348Z,24.49
2023-04-21T09:34:19.749Z,24.58
2023-04-21T09:36:48.554Z,24.52
2023-04-21T09:41:48.980Z,24.76
2023-04-21T09:44:18.099Z,24.64
2023-04-21T09:46:50.728Z,24.86
2023-04-21T09:49:19.666Z,24.82
2023-04-21T09:56:57.721Z,24.98
2023-04-21T09:59:30.366Z,25.06
2023-04-21T10:02:01.448Z,25.13
2023-04-21T10:04:33.213Z,25.08
2023-04-21T10:07:02.116Z,24.98
2023-04-21T10:09:41.314Z,25.02
2023-04-21T10:12:13.677Z,25.09
2023-04-21T10:14:42.236Z,25.06
2023-04-21T10:17:12.098Z,25.08
2023-04-21T10:19:50.198Z,25.05
2023-04-21T10:22:28.778Z,24.83
2023-04-21T10:24:57.214Z,25.08
2023-04-21T10:27:37.058Z,25.14
2023-04-21T10:30:20.399Z,25.33
2023-04-21T10:33:02.879Z,25.22
2023-04-21T10:36:02.801Z,25.47
2023-04-21T10:38:35.199Z,25.16
2023-04-21T10:41:27.407Z,25.31
2023-04-21T10:43:59.013Z,25.44
2023-04-21T10:46:34.908Z,25.63
2023-04-21T10:49:09.109Z,25.86
2023-04-21T10:52:16.252Z,26.07
2023-04-21T10:55:05.240Z,26.09
2023-04-21T10:57:35.523Z,26.11
2023-04-21T11:00:07.189Z,26.03
2023-04-21T11:02:39.083Z,26.23
2023-04-21T11:05:11.555Z,26.27
2023-04-21T11:07:39.646Z,26.58
2023-04-21T11:10:10.080Z,26.64
2023-04-21T11:12:40.555Z,26.70
2023-04-21T11:15:10.978Z,26.84
2023-04-21T11:17:43.187Z,26.68
2023-04-21T11:20:12.796Z,26.71
2023-04-21T11:22:41.073Z,26.64
2023-04-21T11:25:18.585Z,26.77
2023-04-21T11:27:55.609Z,26.67
2023-04-21T11:30:31.699Z,26.34
2023-04-21T11:33:00.023Z,26.43
2023-04-21T11:35:29.515Z,26.57
2023-04-21T11:37:57.807Z,26.76
2023-04-21T11:40:26.179Z,27.10
2023-04-21T11:42:54.467Z,27.16
2023-04-21T11:45:22.884Z,27.30
2023-04-21T11:47:51.520Z,27.03
2023-04-21T11:50:33.259Z,26.89
2023-04-21T11:53:03.490Z,26.75
2023-04-21T11:55:31.454Z,26.73
2023-04-21T11:57:59.505Z,27.06
2023-04-21T12:00:31.829Z,27.26
2023-04-21T12:03:00.256Z,27.41
2023-04-21T12:05:37.504Z,27.58
2023-04-21T12:08:06.448Z,27.36
2023-04-21T12:10:34.822Z,27.46
2023-04-21T12:13:03.062Z,27.46
2023-04-21T12:15:31.908Z,27.31
2023-04-21T12:17:59.982Z,27.22
2023-04-21T12:20:30.835Z,26.91
2023-04-21T12:23:01.134Z,26.95
2023-04-21T12:25:29.572Z,27.00
2023-04-21T12:27:59.697Z,26.99
2023-04-21T12:30:28.194Z,26.79
2023-04-21T12:32:56.336Z,26.95
2023-04-21T12:35:24.917Z,26.93
2023-04-21T12:37:53.359Z,26.94
2023-04-21T12:40:23.126Z,26.90
2023-04-21T12:42:51.347Z,26.86
2023-04-21T12:45:19.801Z,26.91
2023-04-21T12:47:47.976Z,26.94
2023-04-21T12:50:16.953Z,27.01
2023-04-21T12:52:45.796Z,27.08
2023-04-21T12:55:14.438Z,27.15
2023-04-21T12:57:43.974Z,27.18
2023-04-21T13:00:14.888Z,26.99
2023-04-21T13:02:43.353Z,27.17
2023-04-21T13:05:12.836Z,26.97
2023-04-21T13:07:41.567Z,27.20
2023-04-21T13:10:10.427Z,26.93
2023-04-21T13:12:38.483Z,27.43
2023-04-21T13:15:09.695Z,27.61
2023-04-21T13:17:37.711Z,27.21
2023-04-21T13:20:07.267Z,27.41
2023-04-21T13:22:36.358Z,27.46
2023-04-21T13:25:04.716Z,27.42
2023-04-21T13:27:33.413Z,27.71
2023-04-21T13:30:01.888Z,27.61
2023-04-21T13:32:31.265Z,27.77
2023-04-21T13:34:59.226Z,28.11
2023-04-21T13:37:27.638Z,28.03
2023-04-21T13:39:55.809Z,27.66
2023-04-21T13:42:23.809Z,27.63
2023-04-21T13:44:52.151Z,27.87
2023-04-21T13:47:20.387Z,27.67
2023-04-21T13:49:50.121Z,27.73
2023-04-21T13:52:18.522Z,27.84
2023-04-21T13:54:50.704Z,27.83
2023-04-21T13:57:19.907Z,27.86
2023-04-21T13:59:48.578Z,28.22
2023-04-21T14:02:16.921Z,28.17
2023-04-21T14:04:45.478Z,27.97
2023-04-21T14:07:17.978Z,27.92
2023-04-21T14:09:46.423Z,27.81
2023-04-21T14:12:14.377Z,28.18
2023-04-21T14:14:42.409Z,27.95
2023-04-21T14:17:10.812Z,27.63
2023-04-21T14:19:38.864Z,27.90
2023-04-21T14:22:06.925Z,28.16
2023-04-21T14:24:36.426Z,27.93
2023-04-21T14:27:04.599Z,27.89
2023-04-21T14:29:32.911Z,27.89
2023-04-21T14:32:01.463Z,27.95
2023-04-21T14:34:29.521Z,28.05
2023-04-21T14:36:58.136Z,27.94
2023-04-21T14:39:26.457Z,28.01
2023-04-21T14:41:55.852Z,27.95
2023-04-21T14:44:23.820Z,27.97
2023-04-21T14:47:05.406Z,28.09
2023-04-21T14:49:38.188Z,28.32
2023-04-21T14:52:07.162Z,28.41
2023-04-21T14:54:35.396Z,28.31
2023-04-21T14:57:18.796Z,28.24
2023-04-21T14:59:50.527Z,28.21
2023-04-21T15:02:19.162Z,27.97
2023-04-21T15:04:47.737Z,27.94
2023-04-21T15:07:19.935Z,28.01
2023-04-21T15:09:51.373Z,28.18
2023-04-21T15:12:21.037Z,27.92
2023-04-21T15:14:49.333Z,28.34
2023-04-21T15:17:17.516Z,28.66
2023-04-21T15:19:46.004Z,28.94
2023-04-21T15:22:15.160Z,29.22
2023-04-21T15:24:43.690Z,29.60
2023-04-21T15:27:12.001Z,29.97
2023-04-21T15:29:41.395Z,30.16
2023-04-21T15:32:09.598Z,30.16
2023-04-21T15:34:37.842Z,30.20
2023-04-21T15:37:05.955Z,30.22
2023-04-21T15:39:34.307Z,30.33
2023-04-21T15:42:04.396Z,30.59
2023-04-21T15:44:33.895Z,30.92
2023-04-21T15:47:03.876Z,31.41
2023-04-21T15:49:31.976Z,31.71
2023-04-21T15:52:00.167Z,31.68
2023-04-21T15:54:28.772Z,31.28
2023-04-21T15:56:57.721Z,30.90
2023-04-21T15:59:26.357Z,31.06
2023-04-21T16:01:56.771Z,31.09
2023-04-21T16:04:26.653Z,31.26
2023-04-21T16:06:54.986Z,31.09
2023-04-21T16:09:23.743Z,31.77
2023-04-21T16:11:52.060Z,32.07
2023-04-21T16:14:20.393Z,32.03
2023-04-21T16:16:48.457Z,32.38
2023-04-21T16:19:17.383Z,32.30
2023-04-21T16:21:46.821Z,32.18
2023-04-21T16:24:14.991Z,32.12
2023-04-21T16:26:43.305Z,31.62
2023-04-21T16:29:11.706Z,31.35
2023-04-21T16:31:39.853Z,30.97
2023-04-21T16:34:08.420Z,31.06
2023-04-21T16:36:37.084Z,31.17
2023-04-21T16:39:06.701Z,30.97
2023-04-21T16:41:35.101Z,30.86
2023-04-21T16:44:03.575Z,30.77
2023-04-21T16:46:31.562Z,30.18
2023-04-21T16:49:00.024Z,29.33
2023-04-21T16:51:28.628Z,28.78
2023-04-21T16:53:56.666Z,28.45
2023-04-21T16:56:26.323Z,28.19
2023-04-21T16:58:54.500Z,27.89
2023-04-21T17:01:22.507Z,27.60
2023-04-21T17:03:50.893Z,27.34
2023-04-21T17:06:21.123Z,27.29
2023-04-21T17:08:49.570Z,27.09
2023-04-21T17:11:17.929Z,26.92
2023-04-21T17:13:47.333Z,26.83
2023-04-21T17:16:15.835Z,26.78
2023-04-21T17:18:44.109Z,26.67
2023-04-21T17:21:12.574Z,26.77
2023-04-21T17:23:40.896Z,27.10
2023-04-21T17:26:12.267Z,27.39
2023-04-21T17:28:40.976Z,27.54
2023-04-21T17:31:15.783Z,27.21
2023-04-21T17:33:52.490Z,26.71
2023-04-21T17:36:20.798Z,26.23
2023-04-21T17:38:48.850Z,25.81
2023-04-21T17:41:16.842Z,25.37
2023-04-21T17:43:45.017Z,25.00
2023-04-21T17:46:14.490Z,24.69
2023-04-21T17:48:42.623Z,24.51
2023-04-21T17:51:11.764Z,24.33
2023-04-21T17:53:39.744Z,24.19
2023-04-21T17:56:08.173Z,23.95
2023-04-21T17:58:36.585Z,23.63
2023-04-21T18:01:04.703Z,23.37
2023-04-21T18:03:36.159Z,23.15
2023-04-21T18:06:04.826Z,22.84
2023-04-21T18:08:33.096Z,22.71
2023-04-21T18:11:01.157Z,22.44
2023-04-21T18:13:29.158Z,22.31
2023-04-21T18:15:57.776Z,22.17
2023-04-21T18:18:27.106Z,21.97
2023-04-21T18:20:56.830Z,21.86
2023-04-21T18:23:25.104Z,21.76
2023-04-21T18:25:53.808Z,21.70
2023-04-21T18:28:22.291Z,21.59
2023-04-21T18:30:51.292Z,21.47
2023-04-21T18:33:23.263Z,21.30
2023-04-21T18:35:52.974Z,21.07
2023-04-21T18:38:23.370Z,20.97
2023-04-21T18:40:54.161Z,20.90
2023-04-21T18:43:22.277Z,20.87
2023-04-21T18:45:50.422Z,20.83
2023-04-21T18:48:18.828Z,20.78
2023-04-21T18:50:46.930Z,20.72
2023-04-21T18:53:15.104Z,20.46
2023-04-21T18:55:45.645Z,20.18
2023-04-21T18:58:13.831Z,20.00
2023-04-21T19:00:42.173Z,19.87
2023-04-21T19:03:11.564Z,19.78
2023-04-21T19:05:40.693Z,19.67
2023-04-21T19:08:10.196Z,19.71
2023-04-21T19:10:39.064Z,19.72
2023-04-21T19:13:08.374Z,19.71
2023-04-21T19:15:36.687Z,19.71
2023-04-21T19:18:05.344Z,19.69
2023-04-21T19:20:35.603Z,19.66
2023-04-21T19:23:03.816Z,19.63
2023-04-21T19:25:32.180Z,19.58
2023-04-21T19:28:01.196Z,19.48
2023-04-21T19:30:30.607Z,19.26
2023-04-21T19:32:59.121Z,19.19
2023-04-21T19:35:28.106Z,19.10
2023-04-21T19:37:56.414Z,18.94
2023-04-21T19:40:24.759Z,18.81
2023-04-21T19:42:52.761Z,18.69
2023-04-21T19:45:20.851Z,18.64
2023-04-21T19:47:50.796Z,18.69
2023-04-21T19:50:19.247Z,18.73
2023-04-21T19:52:47.472Z,18.73
2023-04-21T19:55:16.278Z,18.72
2023-04-21T19:57:44.362Z,18.68
2023-04-21T20:00:14.091Z,18.64
2023-04-21T20:02:43.078Z,18.62
2023-04-21T20:05:12.920Z,18.60
2023-04-21T20:07:40.980Z,18.54
2023-04-21T20:10:10.590Z,18.48
2023-04-21T20:12:38.771Z,18.38
2023-04-21T20:15:08.193Z,18.31
2023-04-21T20:17:36.956Z,18.26
2023-04-21T20:20:06.468Z,18.21
2023-04-21T20:22:36.112Z,18.18
2023-04-21T20:25:04.875Z,18.13
2023-04-21T20:27:33.035Z,17.98
2023-04-21T20:30:01.430Z,17.75
2023-04-21T20:32:30.380Z,17.55
2023-04-21T20:34:59.637Z,17.49
2023-04-21T20:37:27.810Z,17.47
2023-04-21T20:40:01.558Z,17.49
2023-04-21T20:42:29.964Z,17.48
2023-04-21T20:45:02.089Z,17.46
2023-04-21T20:47:30.492Z,17.44
2023-04-21T20:49:59.229Z,17.40
2023-04-21T20:52:27.355Z,17.38
2023-04-21T20:54:56.871Z,17.35
2023-04-21T20:57:27.285Z,17.33
2023-04-21T20:59:55.568Z,17.28
2023-04-21T21:02:23.733Z,17.26
2023-04-21T21:04:52.202Z,17.25
2023-04-21T21:07:20.199Z,17.22
2023-04-21T21:09:48.301Z,17.18
2023-04-21T21:12:18.098Z,17.12
2023-04-21T21:14:46.319Z,17.08
2023-04-21T21:17:16.599Z,17.04
2023-04-21T21:19:44.987Z,16.97
2023-04-21T21:22:13.096Z,16.90
2023-04-21T21:24:41.246Z,16.75
2023-04-21T21:27:09.642Z,16.57
2023-04-21T21:29:39.199Z,16.38
2023-04-21T21:32:07.571Z,16.20
2023-04-21T21:34:35.908Z,16.17
2023-04-21T21:37:04.420Z,16.15
2023-04-21T21:39:32.417Z,16.13
2023-04-21T21:42:00.806Z,16.10
2023-04-21T21:44:28.984Z,16.08
2023-04-21T21:46:58.508Z,16.03
2023-04-21T21:49:26.820Z,16.01
2023-04-21T21:51:54.933Z,15.95
2023-04-21T21:54:23.067Z,15.91
2023-04-21T21:56:51.471Z,15.87
2023-04-21T21:59:19.545Z,15.84
2023-04-21T22:01:47.840Z,15.69
2023-04-21T22:04:17.707Z,15.65
2023-04-21T22:06:46.345Z,15.64
2023-04-21T22:09:14.382Z,15.52
2023-04-21T22:11:42.675Z,15.37
2023-04-21T22:14:22.029Z,15.35
2023-04-21T22:16:53.070Z,15.34
2023-04-21T22:19:22.865Z,15.29
2023-04-21T22:21:50.948Z,15.26
2023-04-21T22:24:19.452Z,15.23
2023-04-21T22:26:47.911Z,15.17
2023-04-21T22:29:16.018Z,15.00
2023-04-21T22:31:44.781Z,14.95
2023-04-21T22:34:15.077Z,14.95
2023-04-21T22:36:44.562Z,14.98
2023-04-21T22:39:13.032Z,14.93
2023-04-21T22:41:41.123Z,14.94
2023-04-21T22:44:09.151Z,14.93
2023-04-21T22:46:37.912Z,14.88
2023-04-21T22:49:05.979Z,14.87
2023-04-21T22:51:34.370Z,14.84
2023-04-21T22:54:04.336Z,14.84
2023-04-21T22:56:34.867Z,14.76
2023-04-21T22:59:03.357Z,14.73
2023-04-21T23:01:32.179Z,14.72
2023-04-21T23:04:00.697Z,14.71
2023-04-21T23:06:29.448Z,14.69
2023-04-21T23:08:57.529Z,14.68
2023-04-21T23:11:26.929Z,14.66
2023-04-21T23:13:55.335Z,14.66
2023-04-21T23:16:23.763Z,14.66
2023-04-21T23:18:51.813Z,14.64
2023-04-21T23:21:20.293Z,14.64
2023-04-21T23:23:48.329Z,14.61
2023-04-21T23:26:16.487Z,14.57
2023-04-21T23:28:46.213Z,14.55
2023-04-21T23:31:14.518Z,14.50
2023-04-21T23:33:42.782Z,14.48
2023-04-21T23:36:11.277Z,14.45
2023-04-21T23:38:39.554Z,14.41
2023-04-21T23:41:07.796Z,14.37
2023-04-21T23:43:37.250Z,14.33
2023-04-21T23:46:06.789Z,14.30
2023-04-21T23:48:35.207Z,14.27
2023-04-21T23:51:03.698Z,14.24
2023-04-21T23:53:31.828Z,14.20
2023-04-21T23:55:59.984Z,14.16
2023-04-21T23:58:28.499Z,14.15
